Londonderry, Pennsylvania
Current Conditions -  °F | °C
As of 11:27 PM on Sunday 25 Jan 2015 (Local Time) from KMDT Reporting Station
Light Snow Light Snow  
Wind Chill: 23°   Ceiling: 1300
Heat Index: 32°   Visibility: 3mi
Dew Point: 29°   Wind: 12mph
Humidity: 88%   Direction: 80°E
Pressure: 29.9"   Gusts: 17mph
Location:  40.1873°N, 76.6948°W
Report Text: KMDT 260427Z 08010G15KT 3SM -SN BR SCT007 OVC013 00/M02 A2990 RMK AO2 P0000 T00001017
Loading
Personal Weather Stations






























Interactive Weather Map New forecast layout! Learn more

10-Day Weather Forecast

Advertisements
Track Severe Weather on mobile